sensor_id;sensor_type;location;lat;lon;timestamp;pressure;altitude;pressure_sealevel;temperature;humidity
77003;BME280;65939;50.060;14.288;2023-05-29T00:01:50;97429.09;;;13.22;66.90
77003;BME280;65939;50.060;14.288;2023-05-29T00:03:52;97431.09;;;13.20;67.09
77003;BME280;65939;50.060;14.288;2023-05-29T00:05:53;97437.47;;;13.17;67.00
77003;BME280;65939;50.060;14.288;2023-05-29T00:07:53;97433.38;;;13.15;67.58
77003;BME280;65939;50.060;14.288;2023-05-29T00:09:54;97431.75;;;13.14;67.75
77003;BME280;65939;50.060;14.288;2023-05-29T00:11:55;97433.56;;;13.13;67.49
77003;BME280;65939;50.060;14.288;2023-05-29T00:13:56;97438.00;;;13.13;67.19
77003;BME280;65939;50.060;14.288;2023-05-29T00:15:57;97433.91;;;13.10;67.24
77003;BME280;65939;50.060;14.288;2023-05-29T00:17:57;97440.13;;;13.09;67.62
77003;BME280;65939;50.060;14.288;2023-05-29T00:19:59;97441.28;;;13.07;68.05
77003;BME280;65939;50.060;14.288;2023-05-29T00:22:01;97438.81;;;13.05;68.69
77003;BME280;65939;50.060;14.288;2023-05-29T00:24:02;97443.41;;;13.03;67.90
77003;BME280;65939;50.060;14.288;2023-05-29T00:26:03;97441.94;;;13.01;68.48
77003;BME280;65939;50.060;14.288;2023-05-29T00:28:04;97438.34;;;12.93;68.61
77003;BME280;65939;50.060;14.288;2023-05-29T00:30:07;97436.38;;;12.87;68.51
77003;BME280;65939;50.060;14.288;2023-05-29T00:32:08;97439.69;;;12.81;68.78
77003;BME280;65939;50.060;14.288;2023-05-29T00:34:08;97438.72;;;12.74;69.48
77003;BME280;65939;50.060;14.288;2023-05-29T00:36:10;97447.41;;;12.66;69.82
77003;BME280;65939;50.060;14.288;2023-05-29T00:38:10;97439.53;;;12.58;69.15
77003;BME280;65939;50.060;14.288;2023-05-29T00:40:11;97443.78;;;12.51;69.60
77003;BME280;65939;50.060;14.288;2023-05-29T00:42:12;97444.28;;;12.46;69.64
77003;BME280;65939;50.060;14.288;2023-05-29T00:44:13;97440.69;;;12.39;70.64
77003;BME280;65939;50.060;14.288;2023-05-29T00:46:16;97438.56;;;12.35;70.36
77003;BME280;65939;50.060;14.288;2023-05-29T00:48:16;97433.78;;;12.30;69.72
77003;BME280;65939;50.060;14.288;2023-05-29T00:50:17;97434.28;;;12.26;70.41
77003;BME280;65939;50.060;14.288;2023-05-29T00:52:19;97433.78;;;12.22;70.06
77003;BME280;65939;50.060;14.288;2023-05-29T00:54:28;97433.13;;;12.20;70.05
77003;BME280;65939;50.060;14.288;2023-05-29T00:56:30;97429.88;;;12.18;70.92
77003;BME280;65939;50.060;14.288;2023-05-29T00:58:31;97428.56;;;12.14;70.77
77003;BME280;65939;50.060;14.288;2023-05-29T01:00:32;97432.50;;;12.10;71.36
77003;BME280;65939;50.060;14.288;2023-05-29T01:02:36;97432.00;;;12.06;70.87
77003;BME280;65939;50.060;14.288;2023-05-29T01:04:38;97426.25;;;12.03;70.58
77003;BME280;65939;50.060;14.288;2023-05-29T01:06:39;97429.84;;;12.02;71.48
77003;BME280;65939;50.060;14.288;2023-05-29T01:08:40;97430.00;;;12.00;70.36
77003;BME280;65939;50.060;14.288;2023-05-29T01:10:41;97424.09;;;11.98;70.51
77003;BME280;65939;50.060;14.288;2023-05-29T01:12:49;97429.50;;;11.96;70.87
77003;BME280;65939;50.060;14.288;2023-05-29T01:28:30;97425.41;;;11.86;70.72
77003;BME280;65939;50.060;14.288;2023-05-29T01:30:34;97423.88;;;11.83;70.92
77003;BME280;65939;50.060;14.288;2023-05-29T01:32:38;97430.09;;;11.82;71.22
77003;BME280;65939;50.060;14.288;2023-05-29T01:34:39;97430.25;;;11.81;70.63
77003;BME280;65939;50.060;14.288;2023-05-29T01:36:40;97429.59;;;11.79;70.35
77003;BME280;65939;50.060;14.288;2023-05-29T01:38:42;97427.13;;;11.77;70.16
77003;BME280;65939;50.060;14.288;2023-05-29T01:40:42;97434.16;;;11.77;70.38
77003;BME280;65939;50.060;14.288;2023-05-29T01:42:43;97432.53;;;11.75;71.59
77003;BME280;65939;50.060;14.288;2023-05-29T01:44:45;97419.63;;;11.74;70.71
77003;BME280;65939;50.060;14.288;2023-05-29T01:46:46;97426.63;;;11.73;70.04
77003;BME280;65939;50.060;14.288;2023-05-29T01:48:48;97427.78;;;11.71;71.32
77003;BME280;65939;50.060;14.288;2023-05-29T01:50:49;97419.13;;;11.70;70.78
77003;BME280;65939;50.060;14.288;2023-05-29T01:52:50;97415.03;;;11.68;70.94
77003;BME280;65939;50.060;14.288;2023-05-29T01:54:51;97413.72;;;11.64;70.60
77003;BME280;65939;50.060;14.288;2023-05-29T01:56:52;97408.94;;;11.59;71.00
77003;BME280;65939;50.060;14.288;2023-05-29T01:58:54;97410.25;;;11.55;70.66
77003;BME280;65939;50.060;14.288;2023-05-29T02:00:56;97409.75;;;11.51;70.75
77003;BME280;65939;50.060;14.288;2023-05-29T02:02:57;97413.34;;;11.50;71.29
77003;BME280;65939;50.060;14.288;2023-05-29T02:04:57;97419.06;;;11.46;71.67
77003;BME280;65939;50.060;14.288;2023-05-29T02:06:58;97417.56;;;11.43;71.91
77003;BME280;65939;50.060;14.288;2023-05-29T02:08:59;97413.47;;;11.41;71.69
77003;BME280;65939;50.060;14.288;2023-05-29T02:11:00;97407.72;;;11.37;71.27
77003;BME280;65939;50.060;14.288;2023-05-29T02:13:00;97409.34;;;11.38;72.25
77003;BME280;65939;50.060;14.288;2023-05-29T02:15:01;97403.31;;;11.38;71.49
77003;BME280;65939;50.060;14.288;2023-05-29T02:17:03;97400.88;;;11.36;72.29
77003;BME280;65939;50.060;14.288;2023-05-29T02:19:04;97400.19;;;11.34;71.72
77003;BME280;65939;50.060;14.288;2023-05-29T02:21:05;97403.13;;;11.31;71.76
77003;BME280;65939;50.060;14.288;2023-05-29T02:23:11;97405.09;;;11.29;71.66
77003;BME280;65939;50.060;14.288;2023-05-29T02:25:11;97398.53;;;11.25;72.65
77003;BME280;65939;50.060;14.288;2023-05-29T02:27:12;97398.84;;;11.22;72.45
77003;BME280;65939;50.060;14.288;2023-05-29T02:29:13;97408.63;;;11.20;72.28
77003;BME280;65939;50.060;14.288;2023-05-29T02:31:13;97400.28;;;11.16;71.90
77003;BME280;65939;50.060;14.288;2023-05-29T02:33:14;97397.97;;;11.13;72.54
77003;BME280;65939;50.060;14.288;2023-05-29T02:35:15;97398.31;;;11.10;72.84
77003;BME280;65939;50.060;14.288;2023-05-29T02:37:17;97392.59;;;11.07;72.61
77003;BME280;65939;50.060;14.288;2023-05-29T02:39:18;97404.00;;;11.06;72.57
77003;BME280;65939;50.060;14.288;2023-05-29T02:41:19;97399.75;;;11.05;72.18
77003;BME280;65939;50.060;14.288;2023-05-29T02:43:21;97394.81;;;11.01;72.45
77003;BME280;65939;50.060;14.288;2023-05-29T02:45:22;97400.06;;;11.01;72.62
77003;BME280;65939;50.060;14.288;2023-05-29T02:47:23;97396.63;;;11.01;72.71
77003;BME280;65939;50.060;14.288;2023-05-29T02:49:24;97392.22;;;11.01;72.37
77003;BME280;65939;50.060;14.288;2023-05-29T02:51:24;97397.44;;;11.01;72.13
77003;BME280;65939;50.060;14.288;2023-05-29T02:53:25;97398.25;;;11.02;72.20
77003;BME280;65939;50.060;14.288;2023-05-29T02:55:26;97395.81;;;11.00;72.37
77003;BME280;65939;50.060;14.288;2023-05-29T02:57:27;97401.84;;;11.01;72.67
77003;BME280;65939;50.060;14.288;2023-05-29T02:59:27;97404.63;;;10.99;72.73
77003;BME280;65939;50.060;14.288;2023-05-29T03:01:28;97406.56;;;10.97;73.23
77003;BME280;65939;50.060;14.288;2023-05-29T03:03:29;97407.56;;;10.96;72.44
77003;BME280;65939;50.060;14.288;2023-05-29T03:05:30;97406.22;;;10.92;72.62
77003;BME280;65939;50.060;14.288;2023-05-29T03:07:31;97406.53;;;10.89;72.86
77003;BME280;65939;50.060;14.288;2023-05-29T03:09:32;97402.44;;;10.87;72.66
77003;BME280;65939;50.060;14.288;2023-05-29T03:11:32;97400.94;;;10.84;73.00
77003;BME280;65939;50.060;14.288;2023-05-29T03:13:33;97408.13;;;10.82;72.67
77003;BME280;65939;50.060;14.288;2023-05-29T03:15:34;97413.34;;;10.82;72.77
77003;BME280;65939;50.060;14.288;2023-05-29T03:17:35;97409.91;;;10.82;72.87
77003;BME280;65939;50.060;14.288;2023-05-29T03:19:37;97409.91;;;10.82;73.32
77003;BME280;65939;50.060;14.288;2023-05-29T03:21:38;97412.53;;;10.82;73.22
77003;BME280;65939;50.060;14.288;2023-05-29T03:23:39;97416.59;;;10.84;73.34
77003;BME280;65939;50.060;14.288;2023-05-29T03:25:40;97409.75;;;10.83;73.12
77003;BME280;65939;50.060;14.288;2023-05-29T03:27:40;97415.66;;;10.85;72.44
77003;BME280;65939;50.060;14.288;2023-05-29T03:29:41;97411.06;;;10.87;72.73
77003;BME280;65939;50.060;14.288;2023-05-29T03:31:42;97414.66;;;10.86;72.89
77003;BME280;65939;50.060;14.288;2023-05-29T03:33:43;97413.84;;;10.86;72.71
77003;BME280;65939;50.060;14.288;2023-05-29T03:35:43;97422.50;;;10.86;72.47
77003;BME280;65939;50.060;14.288;2023-05-29T03:37:44;97417.94;;;10.88;72.17
77003;BME280;65939;50.060;14.288;2023-05-29T03:39:45;97429.06;;;10.90;71.93
77003;BME280;65939;50.060;14.288;2023-05-29T03:41:45;97422.72;;;10.93;72.62
77003;BME280;65939;50.060;14.288;2023-05-29T03:43:46;97422.53;;;10.94;72.21
77003;BME280;65939;50.060;14.288;2023-05-29T03:45:47;97426.66;;;10.97;71.96
77003;BME280;65939;50.060;14.288;2023-05-29T03:47:48;97428.97;;;11.00;71.37
77003;BME280;65939;50.060;14.288;2023-05-29T03:49:49;97426.19;;;11.01;72.17
77003;BME280;65939;50.060;14.288;2023-05-29T03:51:50;97424.25;;;11.03;71.35
77003;BME280;65939;50.060;14.288;2023-05-29T03:53:51;97434.38;;;11.07;71.96
77003;BME280;65939;50.060;14.288;2023-05-29T03:55:51;97435.03;;;11.09;72.03
77003;BME280;65939;50.060;14.288;2023-05-29T03:57:52;97433.91;;;11.11;71.83
77003;BME280;65939;50.060;14.288;2023-05-29T03:59:53;97433.59;;;11.14;72.31
77003;BME280;65939;50.060;14.288;2023-05-29T04:01:53;97435.75;;;11.19;71.94
77003;BME280;65939;50.060;14.288;2023-05-29T04:03:54;97437.22;;;11.21;72.43
77003;BME280;65939;50.060;14.288;2023-05-29T04:05:55;97432.66;;;11.23;73.03
77003;BME280;65939;50.060;14.288;2023-05-29T04:07:56;97434.31;;;11.24;73.14
77003;BME280;65939;50.060;14.288;2023-05-29T04:09:57;97435.13;;;11.25;72.82
77003;BME280;65939;50.060;14.288;2023-05-29T04:11:58;97440.06;;;11.28;72.85
77003;BME280;65939;50.060;14.288;2023-05-29T04:14:00;97436.97;;;11.33;72.67
77003;BME280;65939;50.060;14.288;2023-05-29T04:16:02;97435.19;;;11.41;72.73
77003;BME280;65939;50.060;14.288;2023-05-29T04:18:03;97433.56;;;11.48;72.17
77003;BME280;65939;50.060;14.288;2023-05-29T04:20:04;97442.94;;;11.59;72.89
77003;BME280;65939;50.060;14.288;2023-05-29T04:22:08;97442.00;;;11.68;72.65
77003;BME280;65939;50.060;14.288;2023-05-29T04:24:09;97450.84;;;11.75;72.61
77003;BME280;65939;50.060;14.288;2023-05-29T04:26:11;97451.16;;;11.81;71.93
77003;BME280;65939;50.060;14.288;2023-05-29T04:28:13;97457.91;;;11.83;71.85
77003;BME280;65939;50.060;14.288;2023-05-29T04:30:15;97455.81;;;11.87;72.54
77003;BME280;65939;50.060;14.288;2023-05-29T04:32:16;97460.91;;;11.88;71.59
77003;BME280;65939;50.060;14.288;2023-05-29T04:34:17;97466.78;;;11.90;71.37
77003;BME280;65939;50.060;14.288;2023-05-29T04:36:18;97473.19;;;11.96;72.56
77003;BME280;65939;50.060;14.288;2023-05-29T04:38:19;97474.31;;;12.02;72.08
77003;BME280;65939;50.060;14.288;2023-05-29T04:40:25;97471.06;;;12.08;72.83
77003;BME280;65939;50.060;14.288;2023-05-29T04:42:26;97480.91;;;12.14;72.51
77003;BME280;65939;50.060;14.288;2023-05-29T04:44:27;97479.59;;;12.18;72.13
77003;BME280;65939;50.060;14.288;2023-05-29T04:46:29;97482.72;;;12.21;72.80
77003;BME280;65939;50.060;14.288;2023-05-29T04:48:30;97484.69;;;12.28;72.08
77003;BME280;65939;50.060;14.288;2023-05-29T04:50:31;97485.84;;;12.33;73.29
77003;BME280;65939;50.060;14.288;2023-05-29T04:52:32;97498.28;;;12.39;71.94
77003;BME280;65939;50.060;14.288;2023-05-29T04:54:33;97490.75;;;12.44;72.36
77003;BME280;65939;50.060;14.288;2023-05-29T04:56:35;97493.72;;;12.50;72.17
77003;BME280;65939;50.060;14.288;2023-05-29T04:58:38;97490.59;;;12.54;71.93
77003;BME280;65939;50.060;14.288;2023-05-29T05:00:39;97490.94;;;12.59;71.35
77003;BME280;65939;50.060;14.288;2023-05-29T05:02:43;97492.25;;;12.63;71.68
77003;BME280;65939;50.060;14.288;2023-05-29T05:04:44;97499.28;;;12.71;71.07
77003;BME280;65939;50.060;14.288;2023-05-29T05:06:45;97497.16;;;12.75;71.15
77003;BME280;65939;50.060;14.288;2023-05-29T05:08:46;97486.84;;;12.81;69.86
77003;BME280;65939;50.060;14.288;2023-05-29T05:10:47;97491.25;;;12.89;70.53
77003;BME280;65939;50.060;14.288;2023-05-29T05:12:47;97485.84;;;12.99;70.21
77003;BME280;65939;50.060;14.288;2023-05-29T05:14:48;97491.22;;;13.05;70.89
77003;BME280;65939;50.060;14.288;2023-05-29T05:16:49;97498.28;;;13.13;70.02
77003;BME280;65939;50.060;14.288;2023-05-29T05:18:49;97498.41;;;13.19;70.37
77003;BME280;65939;50.060;14.288;2023-05-29T05:20:50;97496.97;;;13.25;70.08
77003;BME280;65939;50.060;14.288;2023-05-29T05:22:51;97505.47;;;13.35;71.25
77003;BME280;65939;50.060;14.288;2023-05-29T05:24:52;97500.84;;;13.46;70.06
77003;BME280;65939;50.060;14.288;2023-05-29T05:26:54;97505.25;;;13.53;69.91
77003;BME280;65939;50.060;14.288;2023-05-29T05:28:55;97503.25;;;13.63;70.06
77003;BME280;65939;50.060;14.288;2023-05-29T05:30:56;97500.44;;;13.73;70.17
77003;BME280;65939;50.060;14.288;2023-05-29T05:32:57;97498.59;;;13.82;70.37
77003;BME280;65939;50.060;14.288;2023-05-29T05:34:58;97497.72;;;13.89;70.91
77003;BME280;65939;50.060;14.288;2023-05-29T05:36:58;97499.97;;;14.01;71.01
77003;BME280;65939;50.060;14.288;2023-05-29T05:38:59;97499.75;;;14.10;69.65
77003;BME280;65939;50.060;14.288;2023-05-29T05:41:00;97500.38;;;14.21;68.95
77003;BME280;65939;50.060;14.288;2023-05-29T05:43:00;97506.22;;;14.31;68.62
77003;BME280;65939;50.060;14.288;2023-05-29T05:45:01;97511.22;;;14.41;68.89
77003;BME280;65939;50.060;14.288;2023-05-29T05:47:04;97516.75;;;14.54;68.52
77003;BME280;65939;50.060;14.288;2023-05-29T05:49:05;97512.28;;;14.63;68.23
77003;BME280;65939;50.060;14.288;2023-05-29T05:51:05;97513.03;;;14.71;68.69
77003;BME280;65939;50.060;14.288;2023-05-29T05:53:06;97515.22;;;14.82;68.16
77003;BME280;65939;50.060;14.288;2023-05-29T05:55:07;97516.47;;;14.95;68.19
77003;BME280;65939;50.060;14.288;2023-05-29T05:57:08;97518.00;;;15.04;66.89
77003;BME280;65939;50.060;14.288;2023-05-29T05:59:09;97520.56;;;15.12;66.58
77003;BME280;65939;50.060;14.288;2023-05-29T06:01:09;97529.19;;;15.21;64.97
77003;BME280;65939;50.060;14.288;2023-05-29T06:03:11;97518.13;;;15.25;63.72
77003;BME280;65939;50.060;14.288;2023-05-29T06:05:12;97526.47;;;15.29;62.84
77003;BME280;65939;50.060;14.288;2023-05-29T06:07:12;97525.13;;;15.33;62.90
77003;BME280;65939;50.060;14.288;2023-05-29T06:09:13;97520.59;;;15.42;62.96
77003;BME280;65939;50.060;14.288;2023-05-29T06:11:15;97528.25;;;15.51;62.29
77003;BME280;65939;50.060;14.288;2023-05-29T06:13:16;97524.69;;;15.59;61.97
77003;BME280;65939;50.060;14.288;2023-05-29T06:15:17;97521.31;;;15.65;60.74
77003;BME280;65939;50.060;14.288;2023-05-29T06:17:18;97522.91;;;15.74;61.89
77003;BME280;65939;50.060;14.288;2023-05-29T06:19:19;97529.38;;;15.87;61.38
77003;BME280;65939;50.060;14.288;2023-05-29T06:21:19;97529.50;;;16.00;62.23
77003;BME280;65939;50.060;14.288;2023-05-29T06:23:20;97519.13;;;16.13;60.42
77003;BME280;65939;50.060;14.288;2023-05-29T06:25:21;97527.19;;;16.26;60.93
77003;BME280;65939;50.060;14.288;2023-05-29T06:27:22;97530.34;;;16.37;60.17
77003;BME280;65939;50.060;14.288;2023-05-29T06:29:26;97518.69;;;16.46;59.13
77003;BME280;65939;50.060;14.288;2023-05-29T06:31:26;97527.31;;;16.55;58.18
77003;BME280;65939;50.060;14.288;2023-05-29T06:33:27;97531.06;;;16.67;59.05
77003;BME280;65939;50.060;14.288;2023-05-29T06:35:28;97539.94;;;16.81;58.30
77003;BME280;65939;50.060;14.288;2023-05-29T06:37:28;97540.63;;;16.89;58.14
77003;BME280;65939;50.060;14.288;2023-05-29T06:39:29;97537.06;;;16.97;57.20
77003;BME280;65939;50.060;14.288;2023-05-29T06:41:30;97544.19;;;17.03;56.36
77003;BME280;65939;50.060;14.288;2023-05-29T06:43:30;97546.94;;;17.16;54.94
77003;BME280;65939;50.060;14.288;2023-05-29T06:45:31;97543.78;;;17.28;54.09
77003;BME280;65939;50.060;14.288;2023-05-29T06:47:31;97545.66;;;17.34;54.20
77003;BME280;65939;50.060;14.288;2023-05-29T06:49:32;97555.88;;;17.43;54.31
77003;BME280;65939;50.060;14.288;2023-05-29T06:51:33;97548.84;;;17.57;53.73
77003;BME280;65939;50.060;14.288;2023-05-29T06:53:40;97554.22;;;17.70;54.33
77003;BME280;65939;50.060;14.288;2023-05-29T06:55:41;97555.13;;;17.84;53.92
77003;BME280;65939;50.060;14.288;2023-05-29T06:57:41;97556.38;;;17.88;52.40
77003;BME280;65939;50.060;14.288;2023-05-29T06:59:42;97564.94;;;17.90;51.93
77003;BME280;65939;50.060;14.288;2023-05-29T07:01:43;97556.00;;;17.91;51.53
77003;BME280;65939;50.060;14.288;2023-05-29T07:03:43;97550.53;;;18.00;52.68
77003;BME280;65939;50.060;14.288;2023-05-29T07:05:44;97555.63;;;18.01;52.48
77003;BME280;65939;50.060;14.288;2023-05-29T07:07:45;97562.38;;;18.04;52.68
77003;BME280;65939;50.060;14.288;2023-05-29T07:09:46;97551.19;;;18.08;50.57
77003;BME280;65939;50.060;14.288;2023-05-29T07:11:47;97547.16;;;18.12;51.86
77003;BME280;65939;50.060;14.288;2023-05-29T07:13:47;97555.31;;;18.24;52.56
77003;BME280;65939;50.060;14.288;2023-05-29T07:15:48;97538.69;;;18.37;51.16
77003;BME280;65939;50.060;14.288;2023-05-29T07:17:49;97549.72;;;18.47;50.80
77003;BME280;65939;50.060;14.288;2023-05-29T07:19:50;97548.06;;;18.46;50.78
77003;BME280;65939;50.060;14.288;2023-05-29T07:21:51;97547.25;;;18.46;50.23
77003;BME280;65939;50.060;14.288;2023-05-29T07:23:51;97550.13;;;18.51;50.97
77003;BME280;65939;50.060;14.288;2023-05-29T07:25:52;97553.81;;;18.63;51.20
77003;BME280;65939;50.060;14.288;2023-05-29T07:27:52;97551.19;;;18.70;51.67
77003;BME280;65939;50.060;14.288;2023-05-29T07:29:53;97555.72;;;18.82;50.48
77003;BME280;65939;50.060;14.288;2023-05-29T07:31:54;97558.59;;;18.94;51.19
77003;BME280;65939;50.060;14.288;2023-05-29T07:33:55;97556.34;;;19.04;50.47
77003;BME280;65939;50.060;14.288;2023-05-29T07:35:56;97556.38;;;19.18;51.34
77003;BME280;65939;50.060;14.288;2023-05-29T07:37:57;97560.41;;;19.27;50.39
77003;BME280;65939;50.060;14.288;2023-05-29T07:39:57;97547.81;;;19.35;49.55
77003;BME280;65939;50.060;14.288;2023-05-29T07:41:59;97555.13;;;19.40;50.08
77003;BME280;65939;50.060;14.288;2023-05-29T07:44:00;97560.19;;;19.48;50.13
77003;BME280;65939;50.060;14.288;2023-05-29T07:46:00;97555.91;;;19.60;49.45
77003;BME280;65939;50.060;14.288;2023-05-29T07:48:01;97558.56;;;19.67;49.75
77003;BME280;65939;50.060;14.288;2023-05-29T07:50:02;97560.22;;;19.68;49.63
77003;BME280;65939;50.060;14.288;2023-05-29T07:52:05;97562.03;;;19.54;48.64
77003;BME280;65939;50.060;14.288;2023-05-29T07:54:05;97564.28;;;19.44;49.69
77003;BME280;65939;50.060;14.288;2023-05-29T07:56:06;97559.00;;;19.44;49.53
77003;BME280;65939;50.060;14.288;2023-05-29T07:58:07;97569.34;;;19.52;50.24
77003;BME280;65939;50.060;14.288;2023-05-29T08:00:10;97565.69;;;19.60;49.65
77003;BME280;65939;50.060;14.288;2023-05-29T08:02:14;97573.63;;;19.73;50.50
77003;BME280;65939;50.060;14.288;2023-05-29T08:04:14;97563.66;;;19.82;49.66
77003;BME280;65939;50.060;14.288;2023-05-29T08:06:15;97564.03;;;19.92;49.55
77003;BME280;65939;50.060;14.288;2023-05-29T08:08:16;97565.25;;;19.96;49.11
77003;BME280;65939;50.060;14.288;2023-05-29T08:10:18;97564.22;;;19.97;48.53
77003;BME280;65939;50.060;14.288;2023-05-29T08:12:18;97575.38;;;20.06;50.12
77003;BME280;65939;50.060;14.288;2023-05-29T08:14:19;97570.88;;;20.13;49.06
77003;BME280;65939;50.060;14.288;2023-05-29T08:16:20;97577.81;;;20.21;49.76
77003;BME280;65939;50.060;14.288;2023-05-29T08:18:26;97585.53;;;20.29;49.61
77003;BME280;65939;50.060;14.288;2023-05-29T08:20:27;97579.41;;;20.28;49.85
77003;BME280;65939;50.060;14.288;2023-05-29T08:22:29;97583.03;;;20.34;48.93
77003;BME280;65939;50.060;14.288;2023-05-29T08:24:30;97584.72;;;20.28;48.36
77003;BME280;65939;50.060;14.288;2023-05-29T08:26:31;97584.28;;;20.31;48.97
77003;BME280;65939;50.060;14.288;2023-05-29T08:28:32;97578.78;;;20.26;48.08
77003;BME280;65939;50.060;14.288;2023-05-29T08:30:33;97578.75;;;20.33;48.40
77003;BME280;65939;50.060;14.288;2023-05-29T08:32:34;97579.56;;;20.33;48.54
77003;BME280;65939;50.060;14.288;2023-05-29T08:34:35;97580.22;;;20.29;48.40
77003;BME280;65939;50.060;14.288;2023-05-29T08:36:36;97579.38;;;20.35;48.75
77003;BME280;65939;50.060;14.288;2023-05-29T08:38:36;97573.22;;;20.41;47.93
77003;BME280;65939;50.060;14.288;2023-05-29T08:40:37;97570.94;;;20.45;48.37
77003;BME280;65939;50.060;14.288;2023-05-29T08:42:47;97581.38;;;20.53;47.72
77003;BME280;65939;50.060;14.288;2023-05-29T08:44:48;97587.06;;;20.56;47.31
77003;BME280;65939;50.060;14.288;2023-05-29T08:46:55;97579.28;;;20.62;47.21
77003;BME280;65939;50.060;14.288;2023-05-29T08:48:58;97579.88;;;20.64;47.31
77003;BME280;65939;50.060;14.288;2023-05-29T08:51:02;97574.31;;;20.72;47.05
77003;BME280;65939;50.060;14.288;2023-05-29T08:53:04;97569.94;;;20.84;47.59
77003;BME280;65939;50.060;14.288;2023-05-29T08:55:05;97577.69;;;20.92;47.10
77003;BME280;65939;50.060;14.288;2023-05-29T08:57:06;97581.69;;;21.01;47.30
77003;BME280;65939;50.060;14.288;2023-05-29T08:59:08;97579.22;;;21.07;46.67
77003;BME280;65939;50.060;14.288;2023-05-29T09:01:08;97572.63;;;21.09;46.75
77003;BME280;65939;50.060;14.288;2023-05-29T09:03:10;97574.81;;;21.19;47.60
77003;BME280;65939;50.060;14.288;2023-05-29T09:05:11;97582.50;;;21.34;47.17
77003;BME280;65939;50.060;14.288;2023-05-29T09:07:13;97577.94;;;21.41;47.57
77003;BME280;65939;50.060;14.288;2023-05-29T09:09:15;97572.66;;;21.34;46.76
77003;BME280;65939;50.060;14.288;2023-05-29T09:11:16;97571.31;;;21.25;45.75
77003;BME280;65939;50.060;14.288;2023-05-29T09:13:17;97573.78;;;21.20;46.29
77003;BME280;65939;50.060;14.288;2023-05-29T09:15:18;97576.00;;;21.23;46.97
77003;BME280;65939;50.060;14.288;2023-05-29T09:17:19;97583.72;;;21.31;46.10
77003;BME280;65939;50.060;14.288;2023-05-29T09:19:20;97581.06;;;21.31;45.87
77003;BME280;65939;50.060;14.288;2023-05-29T09:21:28;97574.31;;;21.35;45.95
77003;BME280;65939;50.060;14.288;2023-05-29T09:23:32;97570.94;;;21.46;46.61
77003;BME280;65939;50.060;14.288;2023-05-29T09:25:37;97579.38;;;21.62;45.57
77003;BME280;65939;50.060;14.288;2023-05-29T09:27:39;97578.50;;;21.68;45.17
77003;BME280;65939;50.060;14.288;2023-05-29T09:29:42;97577.91;;;21.66;44.89
77003;BME280;65939;50.060;14.288;2023-05-29T09:31:46;97581.59;;;21.65;45.77
77003;BME280;65939;50.060;14.288;2023-05-29T09:33:50;97578.66;;;21.73;45.37
77003;BME280;65939;50.060;14.288;2023-05-29T09:35:50;97580.97;;;21.88;45.99
77003;BME280;65939;50.060;14.288;2023-05-29T09:37:52;97580.63;;;22.03;45.62
77003;BME280;65939;50.060;14.288;2023-05-29T09:39:53;97583.41;;;22.08;44.69
77003;BME280;65939;50.060;14.288;2023-05-29T09:41:53;97576.41;;;22.13;45.66
77003;BME280;65939;50.060;14.288;2023-05-29T09:43:55;97585.41;;;22.12;44.85
77003;BME280;65939;50.060;14.288;2023-05-29T09:45:58;97581.00;;;22.06;44.58
77003;BME280;65939;50.060;14.288;2023-05-29T09:47:59;97586.75;;;22.03;44.23
77003;BME280;65939;50.060;14.288;2023-05-29T09:50:00;97586.00;;;21.96;43.82
77003;BME280;65939;50.060;14.288;2023-05-29T09:52:04;97578.22;;;21.94;43.88
77003;BME280;65939;50.060;14.288;2023-05-29T09:54:18;97575.88;;;22.05;43.84
77003;BME280;65939;50.060;14.288;2023-05-29T09:56:23;97575.88;;;22.23;43.27
77003;BME280;65939;50.060;14.288;2023-05-29T09:58:24;97585.94;;;22.39;43.90
77003;BME280;65939;50.060;14.288;2023-05-29T10:00:25;97586.75;;;22.40;42.73
77003;BME280;65939;50.060;14.288;2023-05-29T10:02:26;97583.72;;;22.36;42.41
77003;BME280;65939;50.060;14.288;2023-05-29T10:04:27;97583.28;;;22.39;42.76
77003;BME280;65939;50.060;14.288;2023-05-29T10:06:29;97573.84;;;22.25;42.56
77003;BME280;65939;50.060;14.288;2023-05-29T10:08:32;97577.38;;;22.19;43.40
77003;BME280;65939;50.060;14.288;2023-05-29T10:10:37;97588.19;;;22.24;43.70
77003;BME280;65939;50.060;14.288;2023-05-29T10:12:51;97577.72;;;22.41;44.50
77003;BME280;65939;50.060;14.288;2023-05-29T10:14:54;97580.13;;;22.61;43.98
77003;BME280;65939;50.060;14.288;2023-05-29T10:17:01;97573.59;;;22.75;42.57
77003;BME280;65939;50.060;14.288;2023-05-29T10:19:06;97567.28;;;22.88;43.05
77003;BME280;65939;50.060;14.288;2023-05-29T10:21:12;97571.31;;;22.90;43.96
77003;BME280;65939;50.060;14.288;2023-05-29T10:23:13;97575.47;;;22.86;43.41
77003;BME280;65939;50.060;14.288;2023-05-29T10:25:18;97575.66;;;22.73;43.56
77003;BME280;65939;50.060;14.288;2023-05-29T10:27:20;97576.59;;;22.67;44.90
77003;BME280;65939;50.060;14.288;2023-05-29T10:29:45;97561.06;;;22.64;44.93
77003;BME280;65939;50.060;14.288;2023-05-29T10:36:30;97568.44;;;22.32;42.81
77003;BME280;65939;50.060;14.288;2023-05-29T10:38:32;97571.41;;;22.23;44.78
77003;BME280;65939;50.060;14.288;2023-05-29T10:40:33;97575.44;;;22.26;44.92
77003;BME280;65939;50.060;14.288;2023-05-29T10:44:45;97574.44;;;22.27;43.47
77003;BME280;65939;50.060;14.288;2023-05-29T10:48:53;97568.44;;;22.32;43.83
77003;BME280;65939;50.060;14.288;2023-05-29T10:50:55;97566.34;;;22.34;43.37
77003;BME280;65939;50.060;14.288;2023-05-29T10:52:56;97557.28;;;22.41;43.21
77003;BME280;65939;50.060;14.288;2023-05-29T10:54:57;97557.31;;;22.53;43.22
77003;BME280;65939;50.060;14.288;2023-05-29T10:57:00;97549.38;;;22.65;43.06
77003;BME280;65939;50.060;14.288;2023-05-29T10:59:01;97551.56;;;22.68;43.32